Time;durP1;ratioP1;P1;durP2;ratioP2;P2;SDS_P1;SDS_P2;PMS_P1;PMS_P2;Temp;Humidity;BMP_temperature;BMP_pressure;BME280_temperature;BME280_humidity;BME280_pressure;Samples;Min_cycle;Max_cycle;Signal;HPM_P1;HPM_P2
2022/08/07 00:00:56;;;;;;;8.95;6.75;;;;;;;24.48;56.69;99612.09;5090336;28;20538;-47
2022/08/07 00:03:23;;;;;;;9.15;7.50;;;;;;;24.48;56.92;99618.25;5088915;28;20138;-44
2022/08/07 00:05:51;;;;;;;12.60;7.15;;;;;;;24.33;56.92;99592.28;5089970;28;20511;-43
2022/08/07 00:08:17;;;;;;;8.63;6.63;;;;;;;24.44;56.88;99611.53;5090171;28;20525;-49
2022/08/07 00:10:43;;;;;;;15.15;7.75;;;;;;;24.30;56.93;99590.72;5088748;28;20060;-44
2022/08/07 00:13:09;;;;;;;9.68;6.80;;;;;;;24.39;57.25;99618.28;5088946;28;20098;-48
2022/08/07 00:15:35;;;;;;;10.52;6.65;;;;;;;24.37;57.02;99606.94;5071922;28;20436;-44
2022/08/07 00:18:03;;;;;;;12.00;7.28;;;;;;;24.19;57.08;99580.25;5088751;28;20511;-45
2022/08/07 00:20:29;;;;;;;9.52;7.32;;;;;;;24.34;57.45;99608.06;5088546;28;20043;-48
2022/08/07 00:22:55;;;;;;;7.22;6.30;;;;;;;24.32;57.37;99612.69;5090016;28;20047;-48
2022/08/07 00:25:23;;;;;;;10.23;7.20;;;;;;;24.15;57.47;99580.63;5090041;28;20576;-46
2022/08/07 00:27:50;;;;;;;9.90;7.15;;;;;;;24.30;57.45;99604.00;5090929;28;20094;-44
2022/08/07 00:30:17;;;;;;;9.43;7.13;;;;;;;24.28;57.43;99605.16;5093897;28;20082;-43
2022/08/07 00:32:42;;;;;;;10.85;7.05;;;;;;;24.26;57.30;99602.63;5092762;28;20044;-46
2022/08/07 00:35:08;;;;;;;10.05;6.78;;;;;;;24.23;57.62;99599.41;5093644;28;20396;-45
2022/08/07 00:37:34;;;;;;;12.77;7.07;;;;;;;24.20;57.49;99600.53;5075567;28;20481;-44
2022/08/07 00:39:59;;;;;;;13.48;7.00;;;;;;;24.17;58.02;99599.94;5092669;28;20400;-46
2022/08/07 00:42:26;;;;;;;9.13;7.22;;;;;;;24.10;58.11;99591.69;5092637;28;20426;-47
2022/08/07 00:44:52;;;;;;;9.10;7.22;;;;;;;24.13;58.17;99604.69;5092374;28;20119;-47
2022/08/07 00:47:18;;;;;;;9.15;7.15;;;;;;;24.02;58.52;99588.91;5092102;28;20047;-43
2022/08/07 00:49:44;;;;;;;9.85;6.70;;;;;;;24.01;58.86;99598.69;5093260;28;20039;-42
2022/08/07 00:52:10;;;;;;;12.10;7.35;;;;;;;23.99;59.04;99602.47;5093327;28;20060;-42
2022/08/07 00:54:36;;;;;;;9.65;7.07;;;;;;;23.94;59.49;99602.88;5092216;28;20093;-46
2022/08/07 00:57:04;;;;;;;12.20;7.43;;;;;;;23.92;59.33;99601.31;5093377;28;20071;-44
2022/08/07 00:59:30;;;;;;;11.57;7.17;;;;;;;23.85;59.56;99584.28;5093354;28;20067;-44
2022/08/07 01:01:56;;;;;;;11.70;7.63;;;;;;;23.84;59.73;99593.22;5092085;28;20109;-45
2022/08/07 01:04:22;;;;;;;17.23;7.70;;;;;;;23.81;59.68;99599.66;5074973;28;20507;-49
2022/08/07 01:06:48;;;;;;;15.75;9.25;;;;;;;23.68;59.72;99569.03;5093104;28;20043;-45
2022/08/07 01:09:15;;;;;;;11.55;9.68;;;;;;;23.62;60.33;99570.44;5074951;28;20055;-45
2022/08/07 01:11:41;;;;;;;16.60;10.02;;;;;;;23.73;60.30;99590.69;5091953;28;20036;-45
2022/08/07 01:14:07;;;;;;;15.68;9.05;;;;;;;23.69;60.86;99590.16;5075008;28;20123;-44
2022/08/07 01:16:35;;;;;;;12.93;8.57;;;;;;;23.67;60.88;99597.41;5091709;28;20040;-46
2022/08/07 01:19:02;;;;;;;13.05;8.43;;;;;;;23.63;61.21;99593.34;5091831;28;20036;-45
2022/08/07 01:21:28;;;;;;;9.95;7.47;;;;;;;23.61;61.17;99593.47;5074932;28;20079;-46
2022/08/07 01:23:56;;;;;;;12.40;7.90;;;;;;;23.60;60.87;99594.44;5092969;28;20036;-43
2022/08/07 01:26:22;;;;;;;15.15;7.20;;;;;;;23.58;60.51;99593.78;5091514;28;20082;-46
2022/08/07 01:28:50;;;;;;;13.65;7.80;;;;;;;23.54;60.28;99587.06;5091533;28;20423;-48
2022/08/07 01:31:27;;;;;;;13.73;7.95;;;;;;;23.59;60.27;99594.59;5075768;28;20047;-46
2022/08/07 01:33:55;;;;;;;13.93;7.20;;;;;;;23.58;60.24;99598.22;5074926;28;20126;-47
2022/08/07 01:36:27;;;;;;;9.90;7.33;;;;;;;23.58;60.07;99598.22;5091472;28;20043;-45
2022/08/07 01:38:54;;;;;;;14.75;7.20;;;;;;;23.53;60.05;99593.34;5074463;28;20662;-45
2022/08/07 01:41:24;;;;;;;11.02;7.20;;;;;;;23.55;59.94;99595.88;5091267;28;20044;-45
2022/08/07 01:43:50;;;;;;;11.63;7.13;;;;;;;23.50;59.74;99590.13;5091105;28;20040;-43
2022/08/07 01:46:18;;;;;;;11.50;7.45;;;;;;;23.51;59.96;99584.66;5091071;28;20043;-45
2022/08/07 01:48:45;;;;;;;10.52;7.35;;;;;;;23.49;60.40;99593.75;5092455;28;20051;-44
2022/08/07 01:51:21;;;;;;;12.10;6.75;;;;;;;23.37;60.35;99573.56;5074399;28;20550;-46
2022/08/07 01:53:50;;;;;;;14.57;7.65;;;;;;;23.48;60.22;99592.91;5074290;28;20048;-48
2022/08/07 01:57:00;;;;;;;11.52;6.85;;;;;;;23.48;60.03;99587.59;5073846;28;20089;-44
2022/08/07 01:59:38;;;;;;;9.68;6.50;;;;;;;23.43;59.85;99587.16;5085517;28;20052;-44
2022/08/07 02:02:12;;;;;;;11.90;6.85;;;;;;;23.47;59.71;99585.06;5091095;28;20096;-45
2022/08/07 02:04:42;;;;;;;10.48;7.47;;;;;;;23.47;59.56;99590.38;5074085;28;20476;-47
2022/08/07 02:07:11;;;;;;;11.52;7.18;;;;;;;23.46;59.80;99586.03;5074129;28;20059;-43
2022/08/07 02:09:40;;;;;;;12.60;6.95;;;;;;;23.40;59.96;99578.59;5090560;28;20040;-47
2022/08/07 02:12:16;;;;;;;12.07;7.07;;;;;;;23.43;60.05;99576.53;5090787;28;20097;-44
2022/08/07 02:14:50;;;;;;;10.63;6.97;;;;;;;23.43;60.71;99578.34;5090626;28;20086;-45
2022/08/07 02:17:22;;;;;;;11.40;7.60;;;;;;;23.21;60.87;99540.44;5074549;28;20048;-45
2022/08/07 02:19:48;;;;;;;11.05;7.40;;;;;;;23.37;61.15;99574.41;5090538;28;20051;-43
2022/08/07 02:22:18;;;;;;;15.07;7.03;;;;;;;23.34;61.36;99568.56;5090499;28;20039;-48
2022/08/07 02:24:47;;;;;;;13.32;6.88;;;;;;;23.37;61.61;99582.38;5090527;28;20046;-48
2022/08/07 02:27:16;;;;;;;8.50;6.23;;;;;;;23.31;61.36;99577.59;5073757;28;20400;-47
2022/08/07 02:29:42;;;;;;;11.63;6.40;;;;;;;23.37;60.80;99577.06;5056502;28;20114;-43
2022/08/07 02:32:09;;;;;;;17.77;6.57;;;;;;;23.41;60.38;99577.63;5073550;28;20666;-44
2022/08/07 02:34:36;;;;;;;12.80;6.80;;;;;;;23.40;60.88;99582.09;5090464;28;20040;-45
2022/08/07 02:37:04;;;;;;;11.60;7.07;;;;;;;23.26;61.12;99558.59;5057032;28;20503;-48
2022/08/07 02:39:32;;;;;;;9.10;6.22;;;;;;;23.24;60.98;99547.28;5073339;28;20078;-42
2022/08/07 02:42:00;;;;;;;15.82;6.78;;;;;;;23.41;61.21;99572.31;5090224;28;20048;-43
2022/08/07 02:44:27;;;;;;;;;;;;;;;23.40;61.50;99575.94;5057009;28;20040;-46
2022/08/07 02:46:55;;;;;;;8.57;6.43;;;;;;;23.35;61.36;99581.66;5090066;28;19972;-44
2022/08/07 02:49:21;;;;;;;9.60;6.25;;;;;;;23.31;61.32;99566.16;5073173;28;20051;-46
2022/08/07 02:51:47;;;;;;;13.82;6.85;;;;;;;23.39;61.31;99580.44;5089245;28;20443;-44
2022/08/07 02:54:14;;;;;;;11.73;6.10;;;;;;;23.41;61.72;99586.44;5073074;28;20185;-44
2022/08/07 02:56:41;;;;;;;12.90;6.82;;;;;;;23.45;61.13;99584.31;5056603;28;20431;-46
2022/08/07 02:59:09;;;;;;;8.02;6.07;;;;;;;23.48;61.38;99584.94;5073083;28;20443;-46
2022/08/07 03:01:37;;;;;;;8.38;5.85;;;;;;;23.53;60.58;99587.19;5056504;28;20526;-45
2022/08/07 03:04:09;;;;;;;6.18;5.13;;;;;;;23.54;60.25;99587.06;5073793;28;20067;-44
2022/08/07 03:06:36;;;;;;;8.07;5.72;;;;;;;23.61;59.57;99592.63;5073100;28;20079;-45
2022/08/07 03:09:09;;;;;;;12.80;5.78;;;;;;;23.66;59.02;99586.94;5089719;28;20115;-44
2022/08/07 03:11:36;;;;;;;13.18;5.85;;;;;;;23.69;58.67;99589.31;5056232;28;20051;-44
2022/08/07 03:14:03;;;;;;;11.52;5.53;;;;;;;23.72;58.51;99587.19;5072757;28;20040;-46
2022/08/07 03:16:30;;;;;;;11.27;5.25;;;;;;;23.76;58.18;99590.44;5072820;28;20074;-46
2022/08/07 03:18:57;;;;;;;14.60;6.03;;;;;;;23.80;57.90;99583.88;5089473;28;20092;-44
2022/08/07 03:21:23;;;;;;;12.48;5.65;;;;;;;23.84;57.65;99588.75;5089528;28;20036;-43
2022/08/07 03:23:50;;;;;;;8.93;5.13;;;;;;;23.87;57.67;99588.47;5072457;28;20499;-42
2022/08/07 03:26:18;;;;;;;12.93;5.20;;;;;;;23.75;57.54;99562.22;5089229;28;20050;-42
2022/08/07 03:28:48;;;;;;;8.13;5.20;;;;;;;23.72;57.33;99549.19;5073203;28;20474;-45
2022/08/07 03:31:17;;;;;;;7.88;5.35;;;;;;;23.96;57.17;99587.66;5055642;28;20408;-47
2022/08/07 03:33:58;;;;;;;9.27;5.28;;;;;;;23.99;56.99;99587.38;5056043;28;20055;-45
2022/08/07 03:36:26;;;;;;;12.38;5.05;;;;;;;23.99;56.84;99584.69;5089148;28;20504;-43
2022/08/07 03:38:57;;;;;;;5.90;4.80;;;;;;;24.04;56.79;99585.13;5089354;28;20055;-46
2022/08/07 03:41:24;;;;;;;9.02;5.13;;;;;;;24.06;56.64;99588.50;5072466;28;20064;-45
2022/08/07 03:43:50;;;;;;;7.47;5.55;;;;;;;23.94;56.26;99559.53;5089269;28;20043;-44
2022/08/07 03:46:16;;;;;;;11.27;5.22;;;;;;;24.15;56.29;99583.28;5078548;28;20040;-44
2022/08/07 03:48:42;;;;;;;8.10;5.15;;;;;;;24.16;56.33;99577.00;5075393;28;20065;-45
2022/08/07 03:51:10;;;;;;;10.43;5.68;;;;;;;24.14;56.39;99577.13;5109399;28;20055;-43
2022/08/07 03:53:39;;;;;;;8.02;4.90;;;;;;;24.21;56.25;99585.44;5109496;28;20043;-45
2022/08/07 03:56:07;;;;;;;10.07;4.88;;;;;;;24.18;55.95;99577.75;5075498;28;20073;-44
2022/08/07 03:58:36;;;;;;;9.93;5.38;;;;;;;24.14;55.96;99571.81;5092778;28;20507;-43
2022/08/07 04:01:03;;;;;;;11.20;5.40;;;;;;;24.28;55.83;99581.22;5109516;28;20047;-44
2022/08/07 04:03:31;;;;;;;10.77;5.30;;;;;;;24.31;56.00;99586.25;5111438;28;20086;-48
2022/08/07 04:06:00;;;;;;;9.25;4.63;;;;;;;24.35;55.86;99591.13;5096964;28;20422;-46
2022/08/07 04:08:28;;;;;;;13.07;5.78;;;;;;;24.37;55.89;99594.50;5113410;28;20039;-46
2022/08/07 04:10:55;;;;;;;8.38;5.45;;;;;;;24.40;55.73;99594.19;5113513;28;20171;-44
2022/08/07 04:13:23;;;;;;;10.93;5.03;;;;;;;24.28;55.76;99568.78;5095456;28;20042;-44
2022/08/07 04:15:49;;;;;;;9.00;5.30;;;;;;;24.45;55.79;99597.28;5096449;28;20422;-44
2022/08/07 04:18:16;;;;;;;10.98;5.20;;;;;;;24.49;55.58;99595.19;5113420;28;20118;-43
2022/08/07 04:20:44;;;;;;;8.73;5.38;;;;;;;24.52;55.73;99605.53;5096284;28;20093;-45
2022/08/07 04:23:11;;;;;;;12.98;5.60;;;;;;;24.37;55.64;99569.75;5096573;28;20154;-44
2022/08/07 04:25:39;;;;;;;10.57;5.40;;;;;;;24.60;55.14;99599.50;5096305;28;20061;-46
2022/08/07 04:28:06;;;;;;;7.97;5.60;;;;;;;24.63;55.43;99599.19;5096260;28;20039;-47
2022/08/07 04:30:34;;;;;;;7.43;5.63;;;;;;;24.67;55.44;99596.09;5114205;28;20484;-46
2022/08/07 04:33:20;;;;;;;9.27;5.35;;;;;;;24.55;55.16;99561.88;5113535;28;20430;-45
2022/08/07 04:35:48;;;;;;;10.15;5.03;;;;;;;24.58;55.33;99562.41;5095612;28;20349;-45
2022/08/07 04:38:16;;;;;;;9.23;5.20;;;;;;;24.67;55.14;99579.31;5112957;28;20062;-44
2022/08/07 04:40:46;;;;;;;7.97;5.25;;;;;;;24.80;54.88;99599.28;5112792;28;20043;-45
2022/08/07 04:43:16;;;;;;;7.78;4.95;;;;;;;24.81;54.74;99600.09;5096079;28;20521;-44
2022/08/07 04:46:08;;;;;;;6.28;5.30;;;;;;;24.86;54.78;99600.53;5096131;28;20541;-46
2022/08/07 04:48:54;;;;;;;8.23;5.07;;;;;;;24.92;54.82;99588.47;5112786;28;20039;-44
2022/08/07 04:51:27;;;;;;;10.13;5.07;;;;;;;25.02;54.75;99598.09;5095428;28;20044;-44
2022/08/07 04:53:59;;;;;;;7.72;4.72;;;;;;;25.10;54.82;99600.88;5079102;28;20040;-47
2022/08/07 04:56:35;;;;;;;7.43;5.53;;;;;;;24.86;54.60;99550.00;5113611;28;20499;-48
2022/08/07 04:59:15;;;;;;;10.43;5.20;;;;;;;25.23;54.19;99605.84;5095698;28;20126;-44
2022/08/07 05:01:53;;;;;;;9.55;5.20;;;;;;;25.27;54.62;99604.59;5095780;28;20507;-45
2022/08/07 05:04:41;;;;;;;11.77;4.88;;;;;;;25.27;54.00;99601.94;5112523;28;20072;-45
2022/08/07 05:07:12;;;;;;;13.60;5.55;;;;;;;25.28;53.93;99607.09;5112356;28;20118;-44
2022/08/07 05:10:02;;;;;;;10.27;5.50;;;;;;;25.34;53.89;99605.66;5095192;28;20080;-45
2022/08/07 05:12:47;;;;;;;8.00;5.65;;;;;;;25.36;53.79;99595.72;5112366;28;20040;-46
2022/08/07 05:15:18;;;;;;;8.85;5.18;;;;;;;25.46;53.46;99600.97;5111840;28;20071;-47
2022/08/07 05:17:53;;;;;;;7.32;5.55;;;;;;;25.55;53.59;99605.38;5112501;28;20822;-46
2022/08/07 05:20:25;;;;;;;8.80;5.65;;;;;;;25.64;53.12;99602.72;5095000;28;20050;-44
2022/08/07 05:22:57;;;;;;;11.48;5.22;;;;;;;25.77;52.94;99605.00;5095540;28;20046;-46
2022/08/07 05:25:23;;;;;;;10.50;7.47;;;;;;;25.94;52.84;99595.34;5111769;28;20054;-43
2022/08/07 05:27:50;;;;;;;12.65;5.60;;;;;;;26.04;52.56;99593.44;5095231;28;20040;-45
2022/08/07 05:30:19;;;;;;;8.43;5.15;;;;;;;26.10;52.34;99587.50;5095366;28;20054;-41
2022/08/07 05:32:49;;;;;;;8.60;5.35;;;;;;;26.22;51.98;99602.28;5095136;28;20487;-43
2022/08/07 05:35:18;;;;;;;8.52;5.30;;;;;;;26.44;51.04;99616.94;5095493;28;20032;-43
2022/08/07 05:37:45;;;;;;;11.75;5.60;;;;;;;26.71;50.76;99622.13;5078662;28;20423;-43
2022/08/07 05:40:11;;;;;;;6.95;4.78;;;;;;;27.06;49.92;99607.03;5111830;28;20130;-45
2022/08/07 05:42:37;;;;;;;10.30;5.45;;;;;;;27.11;49.50;99600.19;5111665;28;20548;-46
2022/08/07 05:45:08;;;;;;;9.07;5.30;;;;;;;27.27;49.15;99600.25;5095266;28;20047;-46
2022/08/07 05:47:35;;;;;;;7.43;5.03;;;;;;;27.48;48.64;99602.50;5111475;28;20081;-47
2022/08/07 05:50:01;;;;;;;9.55;5.10;;;;;;;27.65;48.24;99608.75;5094576;28;20387;-43
2022/08/07 05:52:29;;;;;;;;;;;;;;;27.73;48.43;99611.47;5095155;28;20541;-44
2022/08/07 05:54:55;;;;;;;11.15;4.75;;;;;;;27.72;48.17;99615.97;5112775;28;19927;-43
2022/08/07 05:57:23;;;;;;;7.60;4.65;;;;;;;27.60;47.98;99616.44;5111332;28;20476;-43
2022/08/07 05:59:49;;;;;;;14.40;5.35;;;;;;;27.39;48.37;99593.66;5112458;28;20069;-43
2022/08/07 06:02:18;;;;;;;10.65;5.45;;;;;;;27.35;48.33;99608.31;5111499;28;20039;-45
2022/08/07 06:04:48;;;;;;;8.40;4.65;;;;;;;27.12;48.52;99582.34;5077154;28;20085;-45
2022/08/07 06:07:14;;;;;;;10.25;5.22;;;;;;;27.21;48.82;99610.78;5094327;28;20044;-46
2022/08/07 06:09:40;;;;;;;9.70;4.95;;;;;;;27.17;48.71;99599.56;5094225;28;20035;-44
2022/08/07 06:12:06;;;;;;;10.65;5.20;;;;;;;27.21;48.83;99610.78;5094103;28;20035;-44
2022/08/07 06:14:32;;;;;;;10.02;5.25;;;;;;;27.23;48.81;99611.44;5094140;28;20054;-45
2022/08/07 06:17:02;;;;;;;13.82;5.45;;;;;;;27.24;48.69;99597.94;5094598;28;20047;-44
2022/08/07 06:19:32;;;;;;;10.07;4.88;;;;;;;27.53;48.44;99610.09;5111015;28;20074;-45
2022/08/07 06:21:58;;;;;;;10.48;5.50;;;;;;;27.70;48.20;99619.78;5093877;28;20044;-44
2022/08/07 06:24:24;;;;;;;10.13;5.25;;;;;;;28.01;47.75;99618.19;5110765;28;20108;-48
2022/08/07 06:26:50;;;;;;;8.18;5.00;;;;;;;28.12;47.40;99611.72;5092993;28;20035;-43
2022/08/07 06:29:16;;;;;;;8.75;5.47;;;;;;;28.30;46.81;99609.72;5111006;28;20043;-45
2022/08/07 06:31:42;;;;;;;11.32;5.15;;;;;;;28.74;46.05;99612.03;5093878;28;20074;-44
2022/08/07 06:34:08;;;;;;;7.18;4.80;;;;;;;29.37;45.15;99615.53;5111670;28;20066;-45
2022/08/07 06:36:35;;;;;;;8.80;5.03;;;;;;;29.83;43.92;99578.91;5093675;28;20096;-45
2022/08/07 06:39:00;;;;;;;7.78;5.15;;;;;;;30.65;42.08;99619.34;5111909;28;20043;-45
2022/08/07 06:41:55;;;;;;;9.50;5.60;;;;;;;31.10;41.30;99627.28;5110569;28;20043;-47
2022/08/07 06:44:33;;;;;;;9.10;5.03;;;;;;;30.96;40.96;99628.09;5094922;28;20039;-46
2022/08/07 06:47:01;;;;;;;8.18;5.10;;;;;;;30.03;41.89;99582.00;5093631;28;20119;-47
2022/08/07 06:49:28;;;;;;;12.65;5.40;;;;;;;29.82;42.86;99622.81;5093560;28;20589;-48
2022/08/07 06:51:54;;;;;;;9.55;5.47;;;;;;;29.56;43.23;99616.94;5110163;28;20154;-46
2022/08/07 06:54:21;;;;;;;8.38;5.50;;;;;;;29.74;43.18;99617.50;5110364;28;20122;-43
2022/08/07 06:56:49;;;;;;;8.02;5.65;;;;;;;31.35;41.03;99616.25;5093525;28;20529;-44
2022/08/07 06:59:30;;;;;;;7.72;5.32;;;;;;;32.74;38.35;99620.19;5094608;28;20134;-45
2022/08/07 07:02:01;;;;;;;11.57;5.60;;;;;;;34.42;36.22;99625.84;5110087;28;20035;-44
2022/08/07 07:04:29;;;;;;;9.93;6.03;;;;;;;35.32;34.81;99621.56;5110103;28;20047;-46
2022/08/07 07:06:56;;;;;;;11.80;5.68;;;;;;;35.12;33.75;99635.94;5111242;28;20031;-48
2022/08/07 07:09:26;;;;;;;9.80;5.30;;;;;;;33.94;35.63;99612.47;5111482;28;20043;-47
2022/08/07 07:12:07;;;;;;;13.30;6.05;;;;;;;33.42;36.51;99621.22;5076168;28;20435;-43
2022/08/07 07:14:42;;;;;;;11.10;5.65;;;;;;;34.91;34.57;99622.72;5111245;28;20054;-45
2022/08/07 07:17:15;;;;;;;9.95;5.65;;;;;;;35.96;32.64;99602.50;5110980;28;20522;-44
2022/08/07 07:19:46;;;;;;;9.20;5.90;;;;;;;36.44;32.18;99621.75;5109868;28;20047;-49
2022/08/07 07:22:12;;;;;;;6.72;5.15;;;;;;;35.46;33.26;99623.16;5111160;28;20507;-45
2022/08/07 07:24:39;;;;;;;7.90;5.05;;;;;;;33.98;34.98;99619.13;5110976;28;20438;-44
2022/08/07 07:27:06;;;;;;;7.45;5.53;;;;;;;34.11;34.94;99629.13;5109527;28;20058;-42
2022/08/07 07:29:36;;;;;;;8.10;5.15;;;;;;;34.58;34.17;99605.69;5092538;28;20500;-45
2022/08/07 07:32:06;;;;;;;10.23;5.20;;;;;;;34.48;34.38;99634.97;5109395;28;20039;-44
2022/08/07 07:34:33;;;;;;;8.27;5.00;;;;;;;34.04;35.23;99628.25;5109437;28;20043;-43
2022/08/07 07:37:02;;;;;;;8.50;5.50;;;;;;;33.69;35.66;99632.97;5109424;28;20122;-44
2022/08/07 07:39:29;;;;;;;12.38;5.38;;;;;;;33.61;35.98;99631.22;5092459;28;20423;-47
2022/08/07 07:41:55;;;;;;;9.40;5.38;;;;;;;33.75;35.78;99632.16;5109276;28;20069;-44
2022/08/07 07:44:22;;;;;;;7.57;6.30;;;;;;;35.01;34.54;99627.69;5110727;28;20043;-49
2022/08/07 07:46:48;;;;;;;8.43;5.35;;;;;;;36.76;31.68;99626.06;5109331;28;20075;-45
2022/08/07 07:49:16;;;;;;;12.55;5.53;;;;;;;38.44;29.47;99624.34;5109288;28;20047;-45
2022/08/07 07:51:42;;;;;;;;;;;;;;;39.47;28.38;99628.31;5109555;28;20116;-49
2022/08/07 07:54:09;;;;;;;9.00;5.35;;;;;;;40.01;27.94;99624.22;5110444;28;20387;-49
2022/08/07 07:56:35;;;;;;;9.85;4.97;;;;;;;39.65;27.88;99628.16;5110695;28;20065;-44
2022/08/07 07:59:03;;;;;;;15.13;4.97;;;;;;;39.19;27.89;99624.47;5109349;28;20032;-46
2022/08/07 08:01:30;;;;;;;7.25;4.93;;;;;;;39.16;27.70;99615.94;5109332;28;20556;-45
2022/08/07 08:03:57;;;;;;;14.98;5.30;;;;;;;39.52;27.12;99604.75;5109318;28;20108;-45
2022/08/07 08:06:24;;;;;;;10.95;5.25;;;;;;;39.55;26.95;99612.44;5092281;28;20039;-48
2022/08/07 08:08:50;;;;;;;10.75;5.45;;;;;;;38.96;27.43;99619.91;5110481;28;20042;-44
2022/08/07 08:11:16;;;;;;;9.90;5.15;;;;;;;38.85;27.66;99622.59;5108677;28;20052;-46
2022/08/07 08:13:44;;;;;;;8.45;5.32;;;;;;;38.50;28.13;99620.72;5092117;28;20042;-44
2022/08/07 08:16:18;;;;;;;8.60;5.30;;;;;;;38.79;28.15;99620.81;5109199;28;20028;-48
2022/08/07 08:18:44;;;;;;;7.90;5.75;;;;;;;39.36;26.87;99619.16;5110327;28;20036;-45
2022/08/07 08:27:03;;;;;;;12.40;6.65;;;;;;;40.15;26.05;99615.47;5108773;28;20039;-48
2022/08/07 08:29:26;;;;;;;9.02;6.32;;;;;;;43.68;22.61;99622.16;5109204;28;20039;-44
2022/08/07 08:31:52;;;;;;;11.27;6.30;;;;;;;44.72;21.93;99618.94;5110235;28;20031;-45
2022/08/07 08:34:30;;;;;;;6.55;4.85;;;;;;;44.70;21.28;99612.91;5110164;28;20035;-43
2022/08/07 08:36:56;;;;;;;;;;;;;;;44.78;20.98;99613.44;5110479;28;20035;-46
2022/08/07 08:39:23;;;;;;;7.13;5.15;;;;;;;44.72;20.45;99609.91;5108993;28;19916;-45
2022/08/07 08:42:38;;;;;;;7.15;5.43;;;;;;;43.27;21.68;99614.88;5109433;28;20082;-44
2022/08/07 08:45:48;;;;;;;7.38;5.25;;;;;;;43.74;21.36;99590.13;5110120;28;20067;-44
2022/08/07 08:48:26;;;;;;;9.40;5.05;;;;;;;44.66;20.79;99592.63;5061846;28;20040;-47
2022/08/07 08:51:00;;;;;;;7.60;5.25;;;;;;;45.26;20.47;99596.28;5112299;28;20122;-46
2022/08/07 08:53:38;;;;;;;7.15;5.32;;;;;;;44.89;19.99;99587.63;5112770;28;20039;-46
2022/08/07 08:56:14;;;;;;;16.35;6.80;;;;;;;44.16;20.94;99596.22;5112634;28;20097;-45
2022/08/07 08:58:56;;;;;;;5.43;4.68;;;;;;;44.51;19.77;99598.09;5113622;28;20040;-46
2022/08/07 09:01:33;;;;;;;6.20;4.75;;;;;;;44.72;19.85;99602.50;5112375;28;20031;-48
2022/08/07 09:04:10;;;;;;;6.82;5.40;;;;;;;43.31;21.46;99589.44;5113728;28;20093;-46
2022/08/07 09:06:44;;;;;;;;;;;;;;;42.78;22.17;99593.28;5113926;28;20085;-45
2022/08/07 09:09:30;;;;;;;9.30;5.50;;;;;;;42.30;22.83;99594.28;5113234;28;19915;-46
2022/08/07 09:12:24;;;;;;;8.27;5.50;;;;;;;41.19;23.97;99595.84;5113617;28;20423;-44
2022/08/07 09:15:09;;;;;;;9.52;4.78;;;;;;;40.31;25.07;99586.59;5102503;28;20055;-46
2022/08/07 09:17:57;;;;;;;4.75;3.95;;;;;;;39.76;24.71;99584.56;5095059;28;20047;-45
2022/08/07 09:20:23;;;;;;;7.18;4.68;;;;;;;38.66;26.39;99575.69;5113332;28;20142;-43
2022/08/07 09:23:38;;;;;;;8.38;4.80;;;;;;;38.41;26.61;99564.22;5112166;28;20176;-47
2022/08/07 09:26:09;;;;;;;5.47;4.15;;;;;;;38.93;25.80;99568.72;5030268;28;20140;-45
2022/08/07 09:28:38;;;;;;;9.95;4.82;;;;;;;40.01;24.35;99564.28;5029946;28;20540;-46
2022/08/07 09:31:16;;;;;;;5.53;4.20;;;;;;;41.48;22.88;99574.63;5030409;28;20046;-47
2022/08/07 09:33:50;;;;;;;;;;;;;;;42.21;22.46;99569.31;5030834;28;20572;-49
2022/08/07 09:36:23;;;;;;;6.05;4.55;;;;;;;43.20;21.51;99560.38;5030047;28;19947;-45
2022/08/07 09:38:52;;;;;;;6.03;4.80;;;;;;;44.14;20.59;99554.53;5013640;28;20045;-46
2022/08/07 09:41:30;;;;;;;7.93;5.50;;;;;;;44.24;20.29;99554.50;5013383;28;20045;-49
2022/08/07 09:44:13;;;;;;;8.60;4.85;;;;;;;43.28;20.28;99534.41;5013780;28;20560;-47
2022/08/07 09:47:16;;;;;;;7.10;4.57;;;;;;;43.78;19.84;99542.72;5013597;28;20170;-49
2022/08/07 09:49:55;;;;;;;7.13;5.00;;;;;;;44.56;19.49;99539.66;5029825;28;20072;-49
2022/08/07 09:52:38;;;;;;;7.50;5.10;;;;;;;43.89;19.85;99530.69;5029748;28;20057;-48
2022/08/07 09:55:31;;;;;;;7.63;5.43;;;;;;;43.49;20.40;99525.16;5013215;28;20092;-45
2022/08/07 09:58:34;;;;;;;8.57;5.00;;;;;;;43.66;19.90;99546.81;5107857;28;20051;-47
2022/08/07 10:01:08;;;;;;;6.53;4.78;;;;;;;42.98;20.32;99527.69;5111055;28;20533;-46
2022/08/07 10:04:01;;;;;;;10.90;4.85;;;;;;;43.97;19.39;99532.06;5111134;28;20043;-46
2022/08/07 10:06:58;;;;;;;6.20;4.43;;;;;;;43.36;19.47;99517.44;5111951;28;20104;-46
2022/08/07 10:09:45;;;;;;;5.25;4.72;;;;;;;42.48;20.40;99528.25;5110731;28;20043;-46
2022/08/07 10:12:20;;;;;;;6.07;4.50;;;;;;;42.30;20.66;99527.84;5112225;28;20123;-43
2022/08/07 10:15:10;;;;;;;7.60;4.47;;;;;;;42.19;20.96;99544.16;5110911;28;20036;-46
2022/08/07 10:17:44;;;;;;;11.32;4.63;;;;;;;41.82;20.93;99530.44;5094134;28;20404;-47
2022/08/07 10:20:41;;;;;;;6.43;4.93;;;;;;;41.84;21.50;99538.38;5112156;27;20072;-45
2022/08/07 10:23:25;;;;;;;6.60;4.28;;;;;;;42.10;20.98;99533.97;5110980;28;20067;-46
2022/08/07 10:26:19;;;;;;;8.38;4.50;;;;;;;42.94;20.35;99529.31;5112022;28;20039;-45
2022/08/07 10:29:06;;;;;;;6.18;4.68;;;;;;;42.99;20.49;99529.34;5111906;28;20077;-47
2022/08/07 10:31:35;;;;;;;5.22;4.53;;;;;;;41.95;21.18;99526.50;5112188;28;20410;-48
2022/08/07 10:34:06;;;;;;;7.95;5.18;;;;;;;42.34;21.07;99531.72;5111980;28;20035;-45
2022/08/07 10:36:51;;;;;;;5.55;4.75;;;;;;;42.41;21.13;99529.56;5111977;28;20078;-46
2022/08/07 10:39:38;;;;;;;6.03;4.88;;;;;;;42.91;20.65;99521.66;5110562;28;20049;-47
2022/08/07 10:42:04;;;;;;;10.32;5.18;;;;;;;43.80;19.72;99523.28;5110659;28;20039;-44
2022/08/07 10:44:54;;;;;;;6.07;4.80;;;;;;;43.46;19.76;99526.50;5111622;28;20422;-45
2022/08/07 10:47:37;;;;;;;4.93;4.50;;;;;;;43.58;19.59;99489.84;5093253;28;20054;-46
2022/08/07 10:50:23;;;;;;;5.15;4.50;;;;;;;42.98;19.92;99502.25;5111672;28;20534;-45
2022/08/07 10:53:07;;;;;;;15.30;4.90;;;;;;;42.94;19.98;99495.66;5110262;28;20126;-45
2022/08/07 10:55:43;;;;;;;6.57;4.30;;;;;;;42.87;19.49;99490.44;5110258;28;20503;-43
2022/08/07 10:58:12;;;;;;;8.25;4.18;;;;;;;42.67;19.81;99491.16;5110116;28;20047;-45
2022/08/07 11:01:16;;;;;;;5.00;3.25;;;;;;;41.33;20.61;99483.28;5110060;28;20511;-46
2022/08/07 11:03:48;;;;;;;6.85;3.30;;;;;;;39.50;22.47;99495.31;5097740;28;20073;-46
2022/08/07 11:06:31;;;;;;;9.52;4.30;;;;;;;38.76;25.37;99505.25;5109842;28;20469;-47
2022/08/07 11:09:09;;;;;;;10.02;4.50;;;;;;;39.12;25.90;99506.00;5110074;28;20430;-42
2022/08/07 11:11:46;;;;;;;8.27;5.20;;;;;;;39.24;25.95;99495.88;5092729;28;20712;-46
2022/08/07 11:14:14;;;;;;;;;;;;;;;39.17;26.07;99506.91;5111625;28;20470;-46
2022/08/07 11:16:46;;;;;;;9.10;5.50;;;;;;;38.43;27.39;99519.44;5092916;28;19915;-48
2022/08/07 11:19:30;;;;;;;13.50;4.78;;;;;;;37.54;28.41;99514.19;5109970;28;20134;-48
2022/08/07 11:22:30;;;;;;;11.60;4.80;;;;;;;36.91;29.70;99504.56;5109693;28;20088;-44
2022/08/07 11:24:58;;;;;;;12.70;4.85;;;;;;;36.17;30.69;99517.44;5109247;28;20043;-45
2022/08/07 11:27:35;;;;;;;10.57;4.43;;;;;;;35.43;32.32;99524.38;5110719;28;20566;-46
2022/08/07 11:30:06;;;;;;;9.13;4.00;;;;;;;34.80;33.24;99562.03;5109812;28;20040;-44
2022/08/07 11:32:55;;;;;;;7.15;4.00;;;;;;;34.03;34.18;99570.75;5109557;28;20039;-43
2022/08/07 11:35:33;;;;;;;5.28;4.03;;;;;;;33.46;34.91;99581.19;5109642;28;20126;-47
2022/08/07 11:38:37;;;;;;;;;;;;;;;33.18;35.08;99560.56;5109993;28;20047;-47
2022/08/07 11:41:15;;;;;;;7.55;4.30;;;;;;;32.87;35.83;99540.50;5028162;28;20019;-44
2022/08/07 11:43:49;;;;;;;5.63;3.85;;;;;;;32.59;36.33;99553.97;5028051;28;20037;-48
2022/08/07 11:46:53;;;;;;;7.38;5.35;;;;;;;32.19;37.30;99569.81;5069613;28;20055;-49
2022/08/07 11:49:33;;;;;;;10.13;4.40;;;;;;;31.97;37.71;99562.78;5110574;28;20099;-43
2022/08/07 11:52:18;;;;;;;10.13;4.03;;;;;;;31.50;37.74;99526.50;5110695;28;20161;-43
2022/08/07 11:54:53;;;;;;;7.13;3.83;;;;;;;31.50;38.23;99566.00;5109623;28;20100;-44
2022/08/07 11:57:20;;;;;;;6.15;3.65;;;;;;;31.21;38.87;99572.25;5110510;28;20035;-44
2022/08/07 12:00:08;;;;;;;4.00;3.35;;;;;;;30.99;39.02;99570.47;5109187;28;20035;-48
2022/08/07 12:03:23;;;;;;;11.45;4.00;;;;;;;30.65;40.09;99581.78;5109344;28;20456;-49